Friday, April 29, 2016
17:51 UTC
  |  Log In   |  Register Free
Airport Search:

Pike County-Hatcher Field Airport
(KPBX)

Pike County-Hatcher Field Airport Diagram
No Airport Diagram Available

FAA data valid effective Mar 31 2016 - May 26 2016 (unless otherwise noted).

 
 
 
 
 
 
 
 
 
 
 
 
 
 
Current Aviation Weather for KPBX

Weather Summary


Current weather conditions are not available for PBX - The nearest NOAA weather station is at SJS, (11.8 nm NW from PBX)

The most recent METAR observation for PBX was updated at: 12:55 UTC
METAR for KPBX is not available. Closest METAR is for KSJS
KPBX  (most recent observation was updatred at 29:17 UTC)
291735Z AUTO 25005G14KT 10SM CLR 23/10 A3001 RMK AO2 T02300097

KSJS  (11.8 nm SE)   (most recent observation was updated at 29:17 UTC)
291735Z AUTO 29005KT 10SM CLR 24/11 A3000 RMK AO2 T02350108

KLNP  (34.5 nm NW)   (most recent observation was updated at 29:17 UTC)
291735Z AUTO 27005KT 10SM CLR 22/02 A3007 RMK AO2

TAF for KPBX is not available.
KSJS  (11.8 nm SE)   (most recent observation was updatred at 29:17 UTC)
291720Z 2918/3018 26009G14KT P6SM FEW090 BKN250 FM300300 VRB03KT P6SM BKN100 FM301200 05003KT P6SM VCSH FEW050 BKN080 FM301300 05005KT 6SM -SHRA BR BKN060


GlobalAir.com is loading additional information.
 Current Weather at LNP
70.0 F° (21.0 C°)

Northwest winds at 8.1 mph
Pressure:
30.09 in
Humidity:
27%
Wind:
Northwest at 8.1 mph
Dew Point:
33.8 F° (1.0 C°)
Visibility:
10.00 mi
PBX NOAA Radar




Find All Airport Services Find A Hotel Find A Rental Car Find A Golf Course Find A Restaurant $100 Hamburger



Airport Weather Forecast for KPBX

Translated METAR for KPBX (1735 UTC)
METAR:
KPBX 291735Z AUTO 25005G14KT 10SM CLR 23/10 A3001 RMK AO2 T02300097
Conditions at:
KPBX (Pike County-Hatcher Field, KY) observed 1735 UTC 29 April 2016
Temperature:
23°C (73.4°F)
Dewpoint:
10°C (50°F) [RH = 43.7]
Pressure:
30.01 inches Hg (1016.3 mb)
Winds:
from the WSW (250 degrees) at 5.8 mph (5 knots: 2.6 m/s)
gusting to 16.1 mph (14 knots: 7.2 m/s)
Visibility:
10 mile(s)
Ceiling:
at least 12,000 feet AGL
Clouds:
Clear below 12,000 feet AGL
Remarks:
site is un-manned
site is automated and HAS a precipitation sensor

Translated TAF for KSJS (Big Sandy Rgnl, KY) (1720 UTC)
TAF text:
KSJS 291720Z 2918/3018 26009G14KT P6SM FEW090 BKN250
Forecast period:
Friday Apr 29 2016 18:00 UTC - Saturday Apr 30 2016 18:00 UTC
Forecast type:
FROM: standard forecast or significant change
Winds:
from the W (260 degrees) at 10.4 mph (9 knots: 4.6 m/s)
gusting to 16.1 mph (14 knots: 7.2 m/s)
Visibility:
6 or more mile(s) (9.7+ km)
Ceiling:
25,000 feet AGL
Clouds:
Few Clouds at 9,000 feet AGL
Broken Cloud Cover at 25,000 feet AGL
Weather:
no significant weather observed at this time
TAF text:
FM300300 VRB03KT P6SM BKN100
Forecast period:
Saturday Apr 30 2016 03:00 UTC - Saturday Apr 30 2016 12:00 UTC
Forecast type:
FROM: standard forecast or significant change
Winds:
variable wind direction at 3.5 mph (3 knots: 1.5 m/s)
Visibility:
6 or more mile(s) (9.7+ km)
Ceiling:
10,000 feet AGL
Clouds:
Broken Cloud Cover at 10,000 feet AGL
Weather:
no significant weather observed at this time
TAF text:
FM301200 05003KT P6SM VCSH FEW050 BKN080
Forecast period:
Saturday Apr 30 2016 12:00 UTC - Saturday Apr 30 2016 13:00 UTC
Forecast type:
FROM: standard forecast or significant change
Winds:
from the NE (050 degrees) at 3.5 mph (3 knots: 1.5 m/s)
Visibility:
6 or more mile(s) (9.7+ km)
Ceiling:
8,000 feet AGL
Clouds:
Few Clouds at 5,000 feet AGL
Broken Cloud Cover at 8,000 feet AGL
Weather:
Moderate In Vicinity Shower(s)
TAF text:
FM301300 05005KT 6SM -SHRA BR BKN060
Forecast period:
Saturday Apr 30 2016 13:00 UTC - Saturday Apr 30 2016 18:00 UTC
Forecast type:
FROM: standard forecast or significant change
Winds:
from the NE (050 degrees) at 5.8 mph (5 knots: 2.6 m/s)
Visibility:
6 mile(s) (9.7 km)
Ceiling:
6,000 feet AGL
Clouds:
Broken Cloud Cover at 6,000 feet AGL
Weather:
Light Shower(s) Rain
FBO's on the Field
FBO Company Facility Photos Services Transportation Aviation Fuel Prices: Prices include tax
Catering Weather Repair Courtesy Rental Type 100LL JetA JetA+ MOGAS 8087
 
Pikeville-Pike Airport

This FBO has not yet been rated
FS:Shell
Last Updated: Apr-20
Login to update fuel prices
SS:
Contact Pikeville-Pike AirportMore FBO Information
 
Add another FBO Facility Photos Catering Weather Repair Courtesy Rental Type 100LL JetA JetA+ MOGAS 8087
Services Transportation Aviation Fuel Prices: Prices include tax


model-print
model-print
model-print
model-print